sensor_id;sensor_type;location;lat;lon;timestamp;P1;durP1;ratioP1;P2;durP2;ratioP2
72856;SDS011;62742;52.136;4.500;2022-11-15T00:00:55;221.55;;;58.47;;
72856;SDS011;62742;52.136;4.500;2022-11-15T00:03:24;258.48;;;61.38;;
72856;SDS011;62742;52.136;4.500;2022-11-15T00:05:53;278.73;;;63.33;;
72856;SDS011;62742;52.136;4.500;2022-11-15T00:08:20;228.52;;;58.70;;
72856;SDS011;62742;52.136;4.500;2022-11-15T00:10:54;221.90;;;59.65;;
72856;SDS011;62742;52.136;4.500;2022-11-15T00:13:22;302.80;;;68.68;;
72856;SDS011;62742;52.136;4.500;2022-11-15T00:15:49;304.25;;;69.93;;
72856;SDS011;62742;52.136;4.500;2022-11-15T00:18:16;261.15;;;66.43;;
72856;SDS011;62742;52.136;4.500;2022-11-15T00:20:44;376.90;;;76.22;;
72856;SDS011;62742;52.136;4.500;2022-11-15T00:23:10;276.90;;;66.07;;
72856;SDS011;62742;52.136;4.500;2022-11-15T00:25:37;338.05;;;73.00;;
72856;SDS011;62742;52.136;4.500;2022-11-15T00:28:04;312.85;;;69.68;;
72856;SDS011;62742;52.136;4.500;2022-11-15T00:30:30;349.52;;;76.88;;
72856;SDS011;62742;52.136;4.500;2022-11-15T00:33:01;286.73;;;66.35;;
72856;SDS011;62742;52.136;4.500;2022-11-15T00:35:32;293.80;;;67.55;;
72856;SDS011;62742;52.136;4.500;2022-11-15T00:38:00;259.13;;;64.18;;
72856;SDS011;62742;52.136;4.500;2022-11-15T00:40:27;216.30;;;58.10;;
72856;SDS011;62742;52.136;4.500;2022-11-15T00:42:54;236.80;;;61.67;;
72856;SDS011;62742;52.136;4.500;2022-11-15T00:45:21;188.40;;;55.45;;
72856;SDS011;62742;52.136;4.500;2022-11-15T00:47:48;322.83;;;70.63;;
72856;SDS011;62742;52.136;4.500;2022-11-15T00:50:14;224.15;;;59.08;;
72856;SDS011;62742;52.136;4.500;2022-11-15T00:52:41;271.92;;;64.15;;
72856;SDS011;62742;52.136;4.500;2022-11-15T00:55:15;224.82;;;57.50;;
72856;SDS011;62742;52.136;4.500;2022-11-15T00:57:44;230.70;;;59.42;;
72856;SDS011;62742;52.136;4.500;2022-11-15T01:00:12;203.32;;;54.95;;
72856;SDS011;62742;52.136;4.500;2022-11-15T01:02:39;233.73;;;58.75;;
72856;SDS011;62742;52.136;4.500;2022-11-15T01:05:06;250.27;;;59.65;;
72856;SDS011;62742;52.136;4.500;2022-11-15T01:07:33;303.45;;;65.90;;
72856;SDS011;62742;52.136;4.500;2022-11-15T01:10:00;350.95;;;72.13;;
72856;SDS011;62742;52.136;4.500;2022-11-15T01:12:26;297.52;;;65.30;;
72856;SDS011;62742;52.136;4.500;2022-11-15T01:14:53;327.48;;;69.13;;
72856;SDS011;62742;52.136;4.500;2022-11-15T01:17:19;364.02;;;72.05;;
72856;SDS011;62742;52.136;4.500;2022-11-15T01:19:46;490.05;;;85.82;;
72856;SDS011;62742;52.136;4.500;2022-11-15T01:22:12;314.15;;;67.72;;
72856;SDS011;62742;52.136;4.500;2022-11-15T01:24:39;323.08;;;69.82;;
72856;SDS011;62742;52.136;4.500;2022-11-15T01:29:32;439.63;;;77.07;;
72856;SDS011;62742;52.136;4.500;2022-11-15T01:31:59;409.10;;;74.45;;
72856;SDS011;62742;52.136;4.500;2022-11-15T01:36:51;447.67;;;77.57;;
72856;SDS011;62742;52.136;4.500;2022-11-15T01:39:18;301.00;;;62.45;;
72856;SDS011;62742;52.136;4.500;2022-11-15T01:41:44;514.38;;;91.25;;
72856;SDS011;62742;52.136;4.500;2022-11-15T01:47:09;459.88;;;81.50;;
72856;SDS011;62742;52.136;4.500;2022-11-15T01:50:38;372.60;;;73.53;;
72856;SDS011;62742;52.136;4.500;2022-11-15T01:52:53;623.70;;;98.65;;
72856;SDS011;62742;52.136;4.500;2022-11-15T01:55:22;378.02;;;74.78;;
72856;SDS011;62742;52.136;4.500;2022-11-15T01:57:54;349.17;;;72.95;;
72856;SDS011;62742;52.136;4.500;2022-11-15T02:00:28;547.55;;;94.35;;
72856;SDS011;62742;52.136;4.500;2022-11-15T02:02:56;363.70;;;72.03;;
72856;SDS011;62742;52.136;4.500;2022-11-15T02:05:23;310.25;;;66.72;;
72856;SDS011;62742;52.136;4.500;2022-11-15T02:07:49;491.52;;;89.35;;
72856;SDS011;62742;52.136;4.500;2022-11-15T02:10:18;407.55;;;76.05;;
72856;SDS011;62742;52.136;4.500;2022-11-15T02:12:48;480.27;;;86.95;;
72856;SDS011;62742;52.136;4.500;2022-11-15T02:15:18;550.33;;;99.75;;
72856;SDS011;62742;52.136;4.500;2022-11-15T02:20:41;431.25;;;79.22;;
72856;SDS011;62742;52.136;4.500;2022-11-15T02:26:59;547.17;;;94.70;;
72856;SDS011;62742;52.136;4.500;2022-11-15T02:32:51;478.43;;;87.17;;
72856;SDS011;62742;52.136;4.500;2022-11-15T02:38:17;406.38;;;80.90;;
72856;SDS011;62742;52.136;4.500;2022-11-15T02:41:04;573.65;;;99.95;;
72856;SDS011;62742;52.136;4.500;2022-11-15T02:46:41;509.35;;;91.00;;
72856;SDS011;62742;52.136;4.500;2022-11-15T02:49:42;441.67;;;81.88;;
72856;SDS011;62742;52.136;4.500;2022-11-15T02:52:19;461.27;;;90.10;;
72856;SDS011;62742;52.136;4.500;2022-11-15T02:54:55;572.92;;;100.32;;
72856;SDS011;62742;52.136;4.500;2022-11-15T03:00:46;521.35;;;96.40;;
72856;SDS011;62742;52.136;4.500;2022-11-15T03:06:28;550.55;;;95.53;;
72856;SDS011;62742;52.136;4.500;2022-11-15T03:12:07;546.10;;;103.85;;
72856;SDS011;62742;52.136;4.500;2022-11-15T03:14:46;700.03;;;115.68;;
72856;SDS011;62742;52.136;4.500;2022-11-15T03:17:43;618.50;;;109.15;;
72856;SDS011;62742;52.136;4.500;2022-11-15T03:20:19;640.85;;;110.70;;
72856;SDS011;62742;52.136;4.500;2022-11-15T03:22:46;662.92;;;111.32;;
72856;SDS011;62742;52.136;4.500;2022-11-15T03:25:17;585.38;;;106.43;;
72856;SDS011;62742;52.136;4.500;2022-11-15T03:27:52;583.78;;;107.53;;
72856;SDS011;62742;52.136;4.500;2022-11-15T03:30:24;566.03;;;103.90;;
72856;SDS011;62742;52.136;4.500;2022-11-15T03:32:58;569.38;;;103.95;;
72856;SDS011;62742;52.136;4.500;2022-11-15T03:35:37;581.80;;;104.18;;
72856;SDS011;62742;52.136;4.500;2022-11-15T03:38:21;563.92;;;107.05;;
72856;SDS011;62742;52.136;4.500;2022-11-15T03:43:32;506.23;;;94.43;;
72856;SDS011;62742;52.136;4.500;2022-11-15T03:46:26;441.65;;;85.30;;
72856;SDS011;62742;52.136;4.500;2022-11-15T03:49:10;434.75;;;88.95;;
72856;SDS011;62742;52.136;4.500;2022-11-15T03:51:45;611.92;;;110.50;;
72856;SDS011;62742;52.136;4.500;2022-11-15T03:54:12;457.65;;;92.07;;
72856;SDS011;62742;52.136;4.500;2022-11-15T03:56:39;488.50;;;95.72;;
72856;SDS011;62742;52.136;4.500;2022-11-15T03:59:05;560.67;;;103.00;;
72856;SDS011;62742;52.136;4.500;2022-11-15T04:03:58;433.20;;;86.47;;
72856;SDS011;62742;52.136;4.500;2022-11-15T04:06:25;499.42;;;95.75;;
72856;SDS011;62742;52.136;4.500;2022-11-15T04:08:51;446.20;;;90.45;;
72856;SDS011;62742;52.136;4.500;2022-11-15T04:13:44;461.83;;;91.65;;
72856;SDS011;62742;52.136;4.500;2022-11-15T04:18:36;414.13;;;82.88;;
72856;SDS011;62742;52.136;4.500;2022-11-15T04:21:03;340.63;;;73.93;;
72856;SDS011;62742;52.136;4.500;2022-11-15T04:23:48;455.73;;;92.00;;
72856;SDS011;62742;52.136;4.500;2022-11-15T04:26:21;379.23;;;80.03;;
72856;SDS011;62742;52.136;4.500;2022-11-15T04:28:49;460.85;;;92.72;;
72856;SDS011;62742;52.136;4.500;2022-11-15T04:31:34;456.90;;;90.35;;
72856;SDS011;62742;52.136;4.500;2022-11-15T04:36:27;426.63;;;81.80;;
72856;SDS011;62742;52.136;4.500;2022-11-15T04:39:12;343.20;;;73.60;;
72856;SDS011;62742;52.136;4.500;2022-11-15T04:41:38;310.58;;;67.85;;
72856;SDS011;62742;52.136;4.500;2022-11-15T04:44:04;290.38;;;68.13;;
72856;SDS011;62742;52.136;4.500;2022-11-15T04:46:31;285.95;;;72.80;;
72856;SDS011;62742;52.136;4.500;2022-11-15T04:51:24;380.23;;;77.18;;
72856;SDS011;62742;52.136;4.500;2022-11-15T04:53:51;204.40;;;56.15;;
72856;SDS011;62742;52.136;4.500;2022-11-15T04:56:18;293.13;;;69.18;;
72856;SDS011;62742;52.136;4.500;2022-11-15T04:58:48;257.58;;;66.10;;
72856;SDS011;62742;52.136;4.500;2022-11-15T05:01:15;261.20;;;62.83;;
72856;SDS011;62742;52.136;4.500;2022-11-15T05:03:43;214.75;;;59.28;;
72856;SDS011;62742;52.136;4.500;2022-11-15T05:06:29;109.32;;;42.55;;
72856;SDS011;62742;52.136;4.500;2022-11-15T05:08:56;188.02;;;57.40;;
72856;SDS011;62742;52.136;4.500;2022-11-15T05:11:23;184.77;;;54.53;;
72856;SDS011;62742;52.136;4.500;2022-11-15T05:13:50;140.35;;;48.08;;
72856;SDS011;62742;52.136;4.500;2022-11-15T05:16:17;154.38;;;48.40;;
72856;SDS011;62742;52.136;4.500;2022-11-15T05:18:43;148.10;;;47.20;;
72856;SDS011;62742;52.136;4.500;2022-11-15T05:21:11;118.88;;;42.45;;
72856;SDS011;62742;52.136;4.500;2022-11-15T05:23:40;110.00;;;41.17;;
72856;SDS011;62742;52.136;4.500;2022-11-15T05:26:07;135.68;;;45.60;;
72856;SDS011;62742;52.136;4.500;2022-11-15T05:28:35;110.25;;;40.65;;
72856;SDS011;62742;52.136;4.500;2022-11-15T05:31:04;114.75;;;41.30;;
72856;SDS011;62742;52.136;4.500;2022-11-15T05:33:34;97.50;;;36.00;;
72856;SDS011;62742;52.136;4.500;2022-11-15T05:38:39;86.13;;;34.65;;
72856;SDS011;62742;52.136;4.500;2022-11-15T05:41:06;94.20;;;36.60;;
72856;SDS011;62742;52.136;4.500;2022-11-15T05:43:33;64.70;;;28.60;;
72856;SDS011;62742;52.136;4.500;2022-11-15T05:46:06;83.43;;;34.72;;
72856;SDS011;62742;52.136;4.500;2022-11-15T05:48:36;85.63;;;35.28;;
72856;SDS011;62742;52.136;4.500;2022-11-15T05:51:06;90.70;;;33.47;;
72856;SDS011;62742;52.136;4.500;2022-11-15T05:53:33;71.95;;;29.15;;
72856;SDS011;62742;52.136;4.500;2022-11-15T05:56:03;91.28;;;35.22;;
72856;SDS011;62742;52.136;4.500;2022-11-15T05:58:32;82.93;;;33.22;;
72856;SDS011;62742;52.136;4.500;2022-11-15T06:00:59;73.45;;;30.95;;
72856;SDS011;62742;52.136;4.500;2022-11-15T06:03:27;94.65;;;34.67;;
72856;SDS011;62742;52.136;4.500;2022-11-15T06:05:53;66.05;;;30.88;;
72856;SDS011;62742;52.136;4.500;2022-11-15T06:08:20;74.18;;;32.53;;
72856;SDS011;62742;52.136;4.500;2022-11-15T06:10:46;65.82;;;29.65;;
72856;SDS011;62742;52.136;4.500;2022-11-15T06:13:13;65.43;;;28.90;;
72856;SDS011;62742;52.136;4.500;2022-11-15T06:15:39;53.47;;;26.08;;
72856;SDS011;62742;52.136;4.500;2022-11-15T06:20:32;58.03;;;26.38;;
72856;SDS011;62742;52.136;4.500;2022-11-15T06:22:59;50.60;;;23.63;;
72856;SDS011;62742;52.136;4.500;2022-11-15T06:25:28;51.90;;;23.67;;
72856;SDS011;62742;52.136;4.500;2022-11-15T06:27:56;52.70;;;24.15;;
72856;SDS011;62742;52.136;4.500;2022-11-15T06:30:25;38.65;;;21.90;;
72856;SDS011;62742;52.136;4.500;2022-11-15T06:32:58;45.20;;;20.80;;
72856;SDS011;62742;52.136;4.500;2022-11-15T06:35:27;45.78;;;22.20;;
72856;SDS011;62742;52.136;4.500;2022-11-15T06:37:55;42.35;;;18.83;;
72856;SDS011;62742;52.136;4.500;2022-11-15T06:40:27;34.33;;;17.60;;
72856;SDS011;62742;52.136;4.500;2022-11-15T06:42:59;38.50;;;17.48;;
72856;SDS011;62742;52.136;4.500;2022-11-15T06:45:26;39.88;;;19.23;;
72856;SDS011;62742;52.136;4.500;2022-11-15T06:47:53;32.92;;;15.93;;
72856;SDS011;62742;52.136;4.500;2022-11-15T06:50:19;39.95;;;17.60;;
72856;SDS011;62742;52.136;4.500;2022-11-15T06:52:46;35.90;;;15.30;;
72856;SDS011;62742;52.136;4.500;2022-11-15T06:55:13;35.60;;;17.13;;
72856;SDS011;62742;52.136;4.500;2022-11-15T06:57:46;36.13;;;17.73;;
72856;SDS011;62742;52.136;4.500;2022-11-15T07:00:17;33.50;;;16.63;;
72856;SDS011;62742;52.136;4.500;2022-11-15T07:02:47;36.17;;;17.17;;
72856;SDS011;62742;52.136;4.500;2022-11-15T07:05:14;33.88;;;17.58;;
72856;SDS011;62742;52.136;4.500;2022-11-15T07:07:41;37.25;;;18.17;;
72856;SDS011;62742;52.136;4.500;2022-11-15T07:10:08;36.50;;;17.23;;
72856;SDS011;62742;52.136;4.500;2022-11-15T07:12:35;36.50;;;17.08;;
72856;SDS011;62742;52.136;4.500;2022-11-15T07:15:01;34.10;;;17.83;;
72856;SDS011;62742;52.136;4.500;2022-11-15T07:17:28;35.75;;;17.10;;
72856;SDS011;62742;52.136;4.500;2022-11-15T07:19:55;34.63;;;15.18;;
72856;SDS011;62742;52.136;4.500;2022-11-15T07:22:21;33.45;;;15.10;;
72856;SDS011;62742;52.136;4.500;2022-11-15T07:24:48;31.88;;;13.93;;
72856;SDS011;62742;52.136;4.500;2022-11-15T07:27:14;28.20;;;14.77;;
72856;SDS011;62742;52.136;4.500;2022-11-15T07:29:41;32.00;;;14.25;;
72856;SDS011;62742;52.136;4.500;2022-11-15T07:32:08;33.33;;;13.98;;
72856;SDS011;62742;52.136;4.500;2022-11-15T07:34:35;35.50;;;14.02;;
72856;SDS011;62742;52.136;4.500;2022-11-15T07:37:02;41.05;;;15.75;;
72856;SDS011;62742;52.136;4.500;2022-11-15T07:39:28;29.38;;;14.10;;
72856;SDS011;62742;52.136;4.500;2022-11-15T07:41:55;34.80;;;15.48;;
72856;SDS011;62742;52.136;4.500;2022-11-15T07:44:41;33.60;;;14.27;;
72856;SDS011;62742;52.136;4.500;2022-11-15T07:47:08;31.75;;;13.77;;
72856;SDS011;62742;52.136;4.500;2022-11-15T07:49:34;33.40;;;13.50;;
72856;SDS011;62742;52.136;4.500;2022-11-15T07:52:01;28.38;;;12.93;;
72856;SDS011;62742;52.136;4.500;2022-11-15T07:54:27;29.05;;;12.73;;
72856;SDS011;62742;52.136;4.500;2022-11-15T07:56:54;30.05;;;12.85;;
72856;SDS011;62742;52.136;4.500;2022-11-15T07:59:20;28.48;;;12.15;;
72856;SDS011;62742;52.136;4.500;2022-11-15T08:01:47;30.25;;;12.15;;
72856;SDS011;62742;52.136;4.500;2022-11-15T08:04:14;23.80;;;9.85;;
72856;SDS011;62742;52.136;4.500;2022-11-15T08:06:40;23.50;;;11.07;;
72856;SDS011;62742;52.136;4.500;2022-11-15T08:09:07;27.70;;;10.95;;
72856;SDS011;62742;52.136;4.500;2022-11-15T08:11:33;25.67;;;10.13;;
72856;SDS011;62742;52.136;4.500;2022-11-15T08:16:26;22.10;;;9.43;;
72856;SDS011;62742;52.136;4.500;2022-11-15T08:18:53;19.38;;;8.25;;
72856;SDS011;62742;52.136;4.500;2022-11-15T08:21:19;21.45;;;9.27;;
72856;SDS011;62742;52.136;4.500;2022-11-15T08:23:48;25.00;;;10.10;;
72856;SDS011;62742;52.136;4.500;2022-11-15T08:26:15;20.70;;;9.15;;
72856;SDS011;62742;52.136;4.500;2022-11-15T08:28:41;22.65;;;9.60;;
72856;SDS011;62742;52.136;4.500;2022-11-15T08:31:14;25.83;;;10.80;;
72856;SDS011;62742;52.136;4.500;2022-11-15T08:33:43;18.27;;;10.40;;
72856;SDS011;62742;52.136;4.500;2022-11-15T08:36:14;20.77;;;9.25;;
72856;SDS011;62742;52.136;4.500;2022-11-15T08:38:43;21.95;;;9.63;;
72856;SDS011;62742;52.136;4.500;2022-11-15T08:41:11;22.75;;;9.85;;
72856;SDS011;62742;52.136;4.500;2022-11-15T08:43:57;16.92;;;8.50;;
72856;SDS011;62742;52.136;4.500;2022-11-15T08:46:23;25.40;;;9.93;;
72856;SDS011;62742;52.136;4.500;2022-11-15T08:48:50;26.65;;;10.90;;
72856;SDS011;62742;52.136;4.500;2022-11-15T08:51:17;21.90;;;9.50;;
72856;SDS011;62742;52.136;4.500;2022-11-15T08:53:43;25.52;;;10.48;;
72856;SDS011;62742;52.136;4.500;2022-11-15T08:56:11;21.88;;;10.80;;
72856;SDS011;62742;52.136;4.500;2022-11-15T08:58:39;23.77;;;11.27;;
72856;SDS011;62742;52.136;4.500;2022-11-15T09:01:13;25.25;;;11.20;;
72856;SDS011;62742;52.136;4.500;2022-11-15T09:03:43;25.55;;;12.30;;
72856;SDS011;62742;52.136;4.500;2022-11-15T09:06:10;24.23;;;12.20;;
72856;SDS011;62742;52.136;4.500;2022-11-15T09:08:37;20.88;;;11.02;;
72856;SDS011;62742;52.136;4.500;2022-11-15T09:11:05;20.95;;;10.75;;
72856;SDS011;62742;52.136;4.500;2022-11-15T09:13:33;21.23;;;11.20;;
72856;SDS011;62742;52.136;4.500;2022-11-15T09:16:00;22.08;;;10.70;;
72856;SDS011;62742;52.136;4.500;2022-11-15T09:18:27;23.10;;;10.35;;
72856;SDS011;62742;52.136;4.500;2022-11-15T09:20:57;18.70;;;8.55;;
72856;SDS011;62742;52.136;4.500;2022-11-15T09:23:25;20.00;;;8.95;;
72856;SDS011;62742;52.136;4.500;2022-11-15T09:25:57;14.63;;;7.65;;
72856;SDS011;62742;52.136;4.500;2022-11-15T09:28:29;18.42;;;8.38;;
72856;SDS011;62742;52.136;4.500;2022-11-15T09:30:57;12.82;;;7.28;;
72856;SDS011;62742;52.136;4.500;2022-11-15T09:33:25;17.67;;;7.25;;
72856;SDS011;62742;52.136;4.500;2022-11-15T09:35:53;17.17;;;7.68;;
72856;SDS011;62742;52.136;4.500;2022-11-15T09:38:25;15.95;;;7.68;;
72856;SDS011;62742;52.136;4.500;2022-11-15T09:41:05;16.10;;;7.30;;
72856;SDS011;62742;52.136;4.500;2022-11-15T09:44:23;16.63;;;7.38;;
72856;SDS011;62742;52.136;4.500;2022-11-15T09:47:10;12.32;;;6.93;;
72856;SDS011;62742;52.136;4.500;2022-11-15T09:50:17;13.77;;;5.97;;
72856;SDS011;62742;52.136;4.500;2022-11-15T09:53:25;12.38;;;7.05;;
72856;SDS011;62742;52.136;4.500;2022-11-15T09:56:35;12.60;;;5.78;;
72856;SDS011;62742;52.136;4.500;2022-11-15T10:04:39;16.38;;;6.25;;
72856;SDS011;62742;52.136;4.500;2022-11-15T10:07:12;13.70;;;5.63;;
72856;SDS011;62742;52.136;4.500;2022-11-15T10:09:57;13.10;;;5.50;;
72856;SDS011;62742;52.136;4.500;2022-11-15T10:12:37;12.30;;;5.80;;
72856;SDS011;62742;52.136;4.500;2022-11-15T10:15:17;12.40;;;5.05;;
72856;SDS011;62742;52.136;4.500;2022-11-15T10:20:41;11.65;;;5.38;;
72856;SDS011;62742;52.136;4.500;2022-11-15T10:23:24;13.60;;;4.70;;
72856;SDS011;62742;52.136;4.500;2022-11-15T10:26:00;11.07;;;4.38;;
72856;SDS011;62742;52.136;4.500;2022-11-15T10:30:58;11.30;;;3.83;;
72856;SDS011;62742;52.136;4.500;2022-11-15T10:44:01;10.75;;;3.35;;
72856;SDS011;62742;52.136;4.500;2022-11-15T10:46:43;9.40;;;3.60;;
72856;SDS011;62742;52.136;4.500;2022-11-15T10:49:31;9.45;;;3.28;;
72856;SDS011;62742;52.136;4.500;2022-11-15T10:52:01;9.32;;;3.42;;
72856;SDS011;62742;52.136;4.500;2022-11-15T10:54:38;8.35;;;3.33;;
72856;SDS011;62742;52.136;4.500;2022-11-15T10:57:37;8.45;;;3.63;;
72856;SDS011;62742;52.136;4.500;2022-11-15T11:05:26;10.77;;;3.55;;
72856;SDS011;62742;52.136;4.500;2022-11-15T11:10:39;8.35;;;3.20;;
72856;SDS011;62742;52.136;4.500;2022-11-15T11:13:26;11.00;;;3.58;;
72856;SDS011;62742;52.136;4.500;2022-11-15T11:18:48;12.02;;;3.88;;
72856;SDS011;62742;52.136;4.500;2022-11-15T11:21:44;9.02;;;3.20;;
72856;SDS011;62742;52.136;4.500;2022-11-15T11:24:44;7.82;;;2.85;;
72856;SDS011;62742;52.136;4.500;2022-11-15T11:33:31;8.35;;;2.60;;
72856;SDS011;62742;52.136;4.500;2022-11-15T11:39:31;10.57;;;2.97;;
72856;SDS011;62742;52.136;4.500;2022-11-15T11:42:17;6.80;;;2.75;;
72856;SDS011;62742;52.136;4.500;2022-11-15T11:51:36;7.63;;;2.47;;
72856;SDS011;62742;52.136;4.500;2022-11-15T11:57:50;11.20;;;2.42;;
72856;SDS011;62742;52.136;4.500;2022-11-15T12:00:59;8.27;;;2.40;;
72856;SDS011;62742;52.136;4.500;2022-11-15T12:03:47;10.80;;;2.40;;
72856;SDS011;62742;52.136;4.500;2022-11-15T12:14:27;9.93;;;2.15;;
72856;SDS011;62742;52.136;4.500;2022-11-15T12:17:02;6.95;;;1.75;;
72856;SDS011;62742;52.136;4.500;2022-11-15T12:19:29;11.45;;;2.20;;
72856;SDS011;62742;52.136;4.500;2022-11-15T12:24:55;6.68;;;1.88;;
72856;SDS011;62742;52.136;4.500;2022-11-15T12:27:35;9.93;;;2.55;;
72856;SDS011;62742;52.136;4.500;2022-11-15T12:30:15;9.50;;;2.05;;
72856;SDS011;62742;52.136;4.500;2022-11-15T12:32:57;10.15;;;2.35;;
72856;SDS011;62742;52.136;4.500;2022-11-15T12:35:34;5.40;;;1.55;;
72856;SDS011;62742;52.136;4.500;2022-11-15T12:38:11;6.22;;;2.08;;
72856;SDS011;62742;52.136;4.500;2022-11-15T12:41:15;5.95;;;1.45;;
72856;SDS011;62742;52.136;4.500;2022-11-15T12:43:45;9.65;;;1.95;;
72856;SDS011;62742;52.136;4.500;2022-11-15T12:48:56;7.50;;;1.55;;
72856;SDS011;62742;52.136;4.500;2022-11-15T13:21:02;9.13;;;1.58;;
72856;SDS011;62742;52.136;4.500;2022-11-15T13:24:03;6.78;;;1.50;;
72856;SDS011;62742;52.136;4.500;2022-11-15T13:26:30;7.43;;;1.52;;
72856;SDS011;62742;52.136;4.500;2022-11-15T13:28:57;8.13;;;2.33;;
72856;SDS011;62742;52.136;4.500;2022-11-15T13:31:30;6.70;;;1.65;;
72856;SDS011;62742;52.136;4.500;2022-11-15T13:39:47;9.75;;;1.55;;
72856;SDS011;62742;52.136;4.500;2022-11-15T13:42:18;7.55;;;1.40;;
72856;SDS011;62742;52.136;4.500;2022-11-15T13:44:56;6.90;;;1.42;;
72856;SDS011;62742;52.136;4.500;2022-11-15T13:47:26;5.90;;;1.60;;
72856;SDS011;62742;52.136;4.500;2022-11-15T13:49:58;11.10;;;1.80;;
72856;SDS011;62742;52.136;4.500;2022-11-15T13:52:27;6.30;;;1.70;;
72856;SDS011;62742;52.136;4.500;2022-11-15T13:57:48;5.60;;;1.40;;
72856;SDS011;62742;52.136;4.500;2022-11-15T14:00:33;8.20;;;1.80;;
72856;SDS011;62742;52.136;4.500;2022-11-15T14:03:19;7.95;;;1.35;;
72856;SDS011;62742;52.136;4.500;2022-11-15T14:06:05;7.82;;;1.55;;
72856;SDS011;62742;52.136;4.500;2022-11-15T14:08:41;7.80;;;1.70;;
72856;SDS011;62742;52.136;4.500;2022-11-15T14:11:32;6.85;;;1.30;;
72856;SDS011;62742;52.136;4.500;2022-11-15T14:16:36;5.90;;;2.00;;
72856;SDS011;62742;52.136;4.500;2022-11-15T14:19:09;4.45;;;1.40;;
72856;SDS011;62742;52.136;4.500;2022-11-15T14:22:11;5.55;;;1.27;;
72856;SDS011;62742;52.136;4.500;2022-11-15T14:25:03;5.40;;;1.50;;
72856;SDS011;62742;52.136;4.500;2022-11-15T14:28:10;5.07;;;1.33;;
72856;SDS011;62742;52.136;4.500;2022-11-15T14:30:50;3.75;;;1.00;;
72856;SDS011;62742;52.136;4.500;2022-11-15T14:33:32;7.05;;;1.63;;
72856;SDS011;62742;52.136;4.500;2022-11-15T14:36:03;6.68;;;2.00;;
72856;SDS011;62742;52.136;4.500;2022-11-15T14:38:30;3.72;;;1.15;;
72856;SDS011;62742;52.136;4.500;2022-11-15T14:40:57;5.90;;;1.30;;
72856;SDS011;62742;52.136;4.500;2022-11-15T14:43:24;7.00;;;1.63;;
72856;SDS011;62742;52.136;4.500;2022-11-15T14:45:50;8.07;;;1.23;;
72856;SDS011;62742;52.136;4.500;2022-11-15T14:48:17;5.55;;;1.00;;
72856;SDS011;62742;52.136;4.500;2022-11-15T14:50:44;8.48;;;1.20;;
72856;SDS011;62742;52.136;4.500;2022-11-15T14:53:11;7.45;;;1.27;;
72856;SDS011;62742;52.136;4.500;2022-11-15T14:55:41;5.65;;;1.23;;
72856;SDS011;62742;52.136;4.500;2022-11-15T14:58:08;10.10;;;1.42;;
72856;SDS011;62742;52.136;4.500;2022-11-15T15:00:37;6.57;;;1.40;;
72856;SDS011;62742;52.136;4.500;2022-11-15T15:03:06;4.70;;;1.45;;
72856;SDS011;62742;52.136;4.500;2022-11-15T15:05:38;6.65;;;1.50;;
72856;SDS011;62742;52.136;4.500;2022-11-15T15:08:07;6.20;;;1.65;;
72856;SDS011;62742;52.136;4.500;2022-11-15T15:10:37;6.43;;;1.42;;
72856;SDS011;62742;52.136;4.500;2022-11-15T15:13:19;6.65;;;1.35;;
72856;SDS011;62742;52.136;4.500;2022-11-15T15:15:50;4.15;;;1.42;;
72856;SDS011;62742;52.136;4.500;2022-11-15T15:18:18;3.83;;;1.27;;
72856;SDS011;62742;52.136;4.500;2022-11-15T15:20:53;4.30;;;1.50;;
72856;SDS011;62742;52.136;4.500;2022-11-15T15:23:29;8.35;;;1.55;;
72856;SDS011;62742;52.136;4.500;2022-11-15T15:25:57;9.10;;;1.90;;
72856;SDS011;62742;52.136;4.500;2022-11-15T15:28:24;5.18;;;1.30;;
72856;SDS011;62742;52.136;4.500;2022-11-15T15:30:51;4.72;;;1.38;;
72856;SDS011;62742;52.136;4.500;2022-11-15T15:33:18;6.70;;;1.70;;
72856;SDS011;62742;52.136;4.500;2022-11-15T15:35:45;5.50;;;1.40;;
72856;SDS011;62742;52.136;4.500;2022-11-15T15:38:11;5.25;;;1.45;;
72856;SDS011;62742;52.136;4.500;2022-11-15T15:40:38;10.57;;;1.77;;
72856;SDS011;62742;52.136;4.500;2022-11-15T15:43:05;5.68;;;1.60;;
72856;SDS011;62742;52.136;4.500;2022-11-15T15:45:35;8.27;;;1.67;;
72856;SDS011;62742;52.136;4.500;2022-11-15T15:48:07;4.43;;;1.27;;
72856;SDS011;62742;52.136;4.500;2022-11-15T15:50:39;7.93;;;1.67;;
72856;SDS011;62742;52.136;4.500;2022-11-15T15:53:08;5.80;;;1.45;;
72856;SDS011;62742;52.136;4.500;2022-11-15T15:55:37;5.63;;;1.77;;
72856;SDS011;62742;52.136;4.500;2022-11-15T15:58:04;7.38;;;1.90;;
72856;SDS011;62742;52.136;4.500;2022-11-15T16:00:32;5.18;;;1.35;;
72856;SDS011;62742;52.136;4.500;2022-11-15T16:03:01;7.75;;;1.88;;
72856;SDS011;62742;52.136;4.500;2022-11-15T16:05:28;6.50;;;1.50;;
72856;SDS011;62742;52.136;4.500;2022-11-15T16:07:54;6.30;;;1.98;;
72856;SDS011;62742;52.136;4.500;2022-11-15T16:12:51;8.70;;;2.10;;
72856;SDS011;62742;52.136;4.500;2022-11-15T16:15:20;6.35;;;1.90;;
72856;SDS011;62742;52.136;4.500;2022-11-15T16:18:09;7.78;;;2.22;;
72856;SDS011;62742;52.136;4.500;2022-11-15T16:20:44;8.52;;;2.40;;
72856;SDS011;62742;52.136;4.500;2022-11-15T16:23:16;8.63;;;2.58;;
72856;SDS011;62742;52.136;4.500;2022-11-15T16:25:47;5.72;;;2.13;;
72856;SDS011;62742;52.136;4.500;2022-11-15T16:28:18;8.57;;;2.40;;
72856;SDS011;62742;52.136;4.500;2022-11-15T16:31:02;8.70;;;2.28;;
72856;SDS011;62742;52.136;4.500;2022-11-15T16:33:35;9.30;;;2.83;;
72856;SDS011;62742;52.136;4.500;2022-11-15T16:36:03;6.68;;;2.50;;
72856;SDS011;62742;52.136;4.500;2022-11-15T16:38:32;9.13;;;2.55;;
72856;SDS011;62742;52.136;4.500;2022-11-15T16:40:58;6.85;;;2.30;;
72856;SDS011;62742;52.136;4.500;2022-11-15T16:43:25;7.85;;;2.55;;
72856;SDS011;62742;52.136;4.500;2022-11-15T16:45:51;11.30;;;3.22;;
72856;SDS011;62742;52.136;4.500;2022-11-15T16:48:24;8.32;;;3.28;;
72856;SDS011;62742;52.136;4.500;2022-11-15T16:50:56;12.82;;;3.30;;
72856;SDS011;62742;52.136;4.500;2022-11-15T16:53:27;9.65;;;3.67;;
72856;SDS011;62742;52.136;4.500;2022-11-15T16:55:53;10.80;;;3.63;;
72856;SDS011;62742;52.136;4.500;2022-11-15T16:58:21;8.18;;;3.63;;
72856;SDS011;62742;52.136;4.500;2022-11-15T17:00:51;9.75;;;3.72;;
72856;SDS011;62742;52.136;4.500;2022-11-15T17:03:20;11.98;;;3.75;;
72856;SDS011;62742;52.136;4.500;2022-11-15T17:05:49;9.55;;;3.60;;
72856;SDS011;62742;52.136;4.500;2022-11-15T17:08:16;10.02;;;4.07;;
72856;SDS011;62742;52.136;4.500;2022-11-15T17:10:45;12.60;;;4.10;;
72856;SDS011;62742;52.136;4.500;2022-11-15T17:13:12;12.30;;;4.78;;
72856;SDS011;62742;52.136;4.500;2022-11-15T17:15:39;11.20;;;4.13;;
72856;SDS011;62742;52.136;4.500;2022-11-15T17:18:05;8.95;;;4.25;;
72856;SDS011;62742;52.136;4.500;2022-11-15T17:20:32;10.10;;;4.15;;
72856;SDS011;62742;52.136;4.500;2022-11-15T17:22:58;10.20;;;3.92;;
72856;SDS011;62742;52.136;4.500;2022-11-15T17:25:25;10.00;;;4.00;;
72856;SDS011;62742;52.136;4.500;2022-11-15T17:27:51;11.30;;;4.18;;
72856;SDS011;62742;52.136;4.500;2022-11-15T17:30:18;10.90;;;4.45;;
72856;SDS011;62742;52.136;4.500;2022-11-15T17:32:45;10.25;;;4.18;;
72856;SDS011;62742;52.136;4.500;2022-11-15T17:35:14;9.25;;;4.18;;
72856;SDS011;62742;52.136;4.500;2022-11-15T17:37:41;9.57;;;3.95;;